createdAt,value
2018-05-14T00:02:19.947Z,95715.48
2018-05-14T00:04:45.832Z,95716.98
2018-05-14T00:07:11.719Z,95725.65
2018-05-14T00:09:37.647Z,95720.84
2018-05-14T00:12:03.552Z,95718.77
2018-05-14T00:14:29.453Z,95721.70
2018-05-14T00:16:55.361Z,95722.89
2018-05-14T00:19:21.251Z,95718.73
2018-05-14T00:21:47.184Z,95708.72
2018-05-14T00:24:13.074Z,95704.66
2018-05-14T00:26:38.991Z,95706.91
2018-05-14T00:29:04.932Z,95705.88
2018-05-14T00:31:30.832Z,95697.88
2018-05-14T00:33:56.723Z,95700.55
2018-05-14T00:36:22.610Z,95704.02
2018-05-14T00:38:48.471Z,95707.61
2018-05-14T00:41:14.351Z,95706.55
2018-05-14T00:43:40.250Z,95700.52
2018-05-14T00:46:06.128Z,95699.25
2018-05-14T00:48:31.997Z,95697.05
2018-05-14T00:50:57.936Z,95696.58
2018-05-14T00:53:23.837Z,95691.11
2018-05-14T00:55:49.740Z,95693.41
2018-05-14T00:58:15.648Z,95692.00
2018-05-14T01:00:41.557Z,95699.30
2018-05-14T01:03:07.493Z,95699.36
2018-05-14T01:05:33.383Z,95701.06
2018-05-14T01:07:59.340Z,95699.63
2018-05-14T01:10:25.208Z,95699.98
2018-05-14T01:12:51.120Z,95701.29
2018-05-14T01:15:17.040Z,95710.48
2018-05-14T01:17:44.817Z,95701.52
2018-05-14T01:20:10.759Z,95704.64
2018-05-14T01:22:39.717Z,95688.50
2018-05-14T01:25:05.703Z,95697.84
2018-05-14T01:27:35.236Z,95698.64
2018-05-14T01:30:01.102Z,95701.77
2018-05-14T01:32:29.432Z,95698.25
2018-05-14T01:34:55.325Z,95706.31
2018-05-14T01:37:21.214Z,95702.27
2018-05-14T01:39:47.123Z,95710.13
2018-05-14T01:42:13.023Z,95705.09
2018-05-14T01:44:41.015Z,95715.91
2018-05-14T01:47:07.123Z,95710.66
2018-05-14T01:49:36.471Z,95716.27
2018-05-14T01:52:02.392Z,95704.77
2018-05-14T01:54:31.951Z,95708.61
2018-05-14T01:56:57.928Z,95704.32
2018-05-14T01:59:25.044Z,95713.62
2018-05-14T02:01:50.980Z,95706.66
2018-05-14T02:04:20.709Z,95707.75
2018-05-14T02:06:46.646Z,95706.22
2018-05-14T02:09:15.859Z,95708.03
2018-05-14T02:11:41.809Z,95699.08
2018-05-14T02:14:07.694Z,95702.20
2018-05-14T02:16:33.587Z,95700.96
2018-05-14T02:18:59.500Z,95700.30
2018-05-14T02:21:26.836Z,95693.45
2018-05-14T02:23:52.753Z,95693.52
2018-05-14T02:26:22.011Z,95686.69
2018-05-14T02:28:47.899Z,95691.00
2018-05-14T02:31:17.173Z,95694.84
2018-05-14T02:33:43.232Z,95703.13
2018-05-14T02:36:10.212Z,95695.41
2018-05-14T02:38:36.108Z,95695.36
2018-05-14T02:41:05.334Z,95691.02
2018-05-14T02:43:31.262Z,95691.81
2018-05-14T02:46:00.696Z,95678.46
2018-05-14T02:48:26.562Z,95682.00
2018-05-14T02:50:52.450Z,95684.50
2018-05-14T02:53:18.389Z,95679.94
2018-05-14T02:55:44.281Z,95680.56
2018-05-14T02:58:11.523Z,95682.44
2018-05-14T03:00:37.456Z,95682.44
2018-05-14T03:03:06.646Z,95682.22
2018-05-14T03:05:32.535Z,95682.55
2018-05-14T03:08:01.900Z,95688.16
2018-05-14T03:10:27.823Z,95685.88
2018-05-14T03:12:56.960Z,95690.16
2018-05-14T03:15:22.862Z,95682.17
2018-05-14T03:17:50.324Z,95681.50
2018-05-14T03:20:16.166Z,95687.20
2018-05-14T03:22:44.964Z,95678.46
2018-05-14T03:25:10.817Z,95682.48
2018-05-14T03:27:36.745Z,95678.73
2018-05-14T03:30:02.757Z,95678.89
2018-05-14T03:32:28.710Z,95684.58
2018-05-14T03:34:58.130Z,95683.47
2018-05-14T03:37:24.029Z,95685.77
2018-05-14T03:39:51.411Z,95695.40
2018-05-14T03:42:17.279Z,95690.36
2018-05-14T03:44:46.810Z,95689.59
2018-05-14T03:47:12.774Z,95687.44
2018-05-14T03:49:42.347Z,95692.47
2018-05-14T03:52:08.228Z,95696.14
2018-05-14T03:54:37.402Z,95697.66
2018-05-14T03:57:03.313Z,95700.87
2018-05-14T03:59:42.265Z,95710.34
2018-05-14T04:02:18.437Z,95704.76
2018-05-14T04:04:56.724Z,95709.45
2018-05-14T04:07:22.620Z,95714.17
2018-05-14T04:09:48.523Z,95717.42
2018-05-14T04:12:14.434Z,95716.23
2018-05-14T04:14:40.957Z,95719.55
2018-05-14T04:17:06.909Z,95723.93
2018-05-14T04:19:32.762Z,95724.00
2018-05-14T04:21:58.646Z,95729.66
2018-05-14T04:24:24.600Z,95729.31
2018-05-14T04:26:50.450Z,95730.59
2018-05-14T04:29:16.364Z,95729.98
2018-05-14T04:31:42.279Z,95732.06
2018-05-14T04:34:08.181Z,95737.55
2018-05-14T04:36:34.042Z,95735.45
2018-05-14T04:39:00.001Z,95738.87
2018-05-14T04:41:25.898Z,95737.08
2018-05-14T04:43:51.800Z,95740.92
2018-05-14T04:46:17.696Z,95739.16
2018-05-14T04:48:43.634Z,95742.55
2018-05-14T04:51:09.532Z,95743.66
2018-05-14T04:53:35.416Z,95745.83
2018-05-14T04:56:01.287Z,95739.80
2018-05-14T05:07:05.465Z,95738.60
2018-05-14T05:09:31.414Z,95735.20
2018-05-14T05:11:57.311Z,95739.69
2018-05-14T05:14:23.256Z,95748.78
2018-05-14T05:16:49.134Z,95748.58
2018-05-14T05:19:15.039Z,95753.89
2018-05-14T05:21:40.950Z,95756.56
2018-05-14T05:24:06.846Z,95757.95
2018-05-14T05:26:32.779Z,95761.08
2018-05-14T05:28:58.783Z,95768.11
2018-05-14T05:31:24.691Z,95764.48
2018-05-14T05:33:51.400Z,95769.81
2018-05-14T05:36:17.340Z,95774.30
2018-05-14T05:38:43.243Z,95779.33
2018-05-14T05:41:09.194Z,95781.95
2018-05-14T05:43:35.140Z,95778.83
2018-05-14T05:46:02.934Z,95779.45
2018-05-14T05:48:28.852Z,95784.98
2018-05-14T05:50:58.139Z,95789.30
2018-05-14T05:53:24.008Z,95783.59
2018-05-14T05:55:53.377Z,95782.70
2018-05-14T05:58:19.284Z,95781.94
2018-05-14T06:00:48.588Z,95783.63
2018-05-14T06:03:14.461Z,95780.58
2018-05-14T06:05:41.673Z,95779.56
2018-05-14T06:08:07.575Z,95778.36
2018-05-14T06:10:37.140Z,95777.30
2018-05-14T06:13:03.054Z,95774.80
2018-05-14T06:15:29.015Z,95781.84
2018-05-14T06:17:54.865Z,95775.00
2018-05-14T06:20:20.744Z,95782.19
2018-05-14T06:22:47.884Z,95786.75
2018-05-14T06:25:13.803Z,95783.55
2018-05-14T06:27:43.821Z,95781.25
2018-05-14T06:30:09.645Z,95788.39
2018-05-14T06:32:38.883Z,95778.94
2018-05-14T06:35:04.808Z,95782.27
2018-05-14T06:37:33.827Z,95792.47
2018-05-14T06:39:59.747Z,95787.31
2018-05-14T06:42:27.039Z,95786.42
2018-05-14T06:44:52.948Z,95779.58
2018-05-14T06:47:22.540Z,95787.56
2018-05-14T06:49:48.540Z,95789.72
2018-05-14T06:52:14.400Z,95780.13
2018-05-14T06:54:40.267Z,95795.55
2018-05-14T06:57:06.183Z,95787.02
2018-05-14T06:59:33.924Z,95794.52
2018-05-14T07:01:59.804Z,95790.58
2018-05-14T07:04:29.075Z,95784.28
2018-05-14T07:06:55.003Z,95785.45
2018-05-14T07:09:24.191Z,95785.59
2018-05-14T07:11:50.064Z,95781.81
2018-05-14T07:14:17.323Z,95774.67
2018-05-14T07:16:43.212Z,95776.61
2018-05-14T07:19:12.233Z,95773.27
2018-05-14T07:33:35.257Z,95767.00
2018-05-14T07:36:01.168Z,95770.22
2018-05-14T07:38:27.078Z,95771.87
2018-05-14T07:40:52.968Z,95776.97
2018-05-14T07:43:18.897Z,95783.58
2018-05-14T07:45:44.842Z,95777.66
2018-05-14T07:48:10.710Z,95787.40
2018-05-14T07:50:36.620Z,95789.06
2018-05-14T07:53:02.510Z,95788.53
2018-05-14T07:55:28.438Z,95785.44
2018-05-14T07:57:54.349Z,95798.12
2018-05-14T08:00:20.268Z,95800.72
2018-05-14T08:02:46.165Z,95798.31
2018-05-14T08:05:12.080Z,95805.23
2018-05-14T08:07:37.959Z,95809.99
2018-05-14T08:10:04.308Z,95816.22
2018-05-14T08:12:30.277Z,95812.38
2018-05-14T08:14:56.228Z,95815.45
2018-05-14T08:17:22.088Z,95818.98
2018-05-14T08:19:47.989Z,95819.30
2018-05-14T08:22:14.135Z,95817.45
2018-05-14T08:24:40.046Z,95825.84
2018-05-14T08:27:05.943Z,95817.17
2018-05-14T08:29:31.844Z,95815.05
2018-05-14T08:31:57.888Z,95816.39
2018-05-14T08:34:24.295Z,95816.92
2018-05-14T08:36:50.231Z,95817.12
2018-05-14T08:39:16.135Z,95815.98
2018-05-14T08:41:42.076Z,95818.13
2018-05-14T08:44:07.960Z,95820.64
2018-05-14T08:46:33.842Z,95809.86
2018-05-14T08:48:59.739Z,95816.17
2018-05-14T08:51:25.619Z,95818.66
2018-05-14T08:53:51.532Z,95818.77
2018-05-14T08:56:17.452Z,95817.98
2018-05-14T08:58:43.367Z,95821.46
2018-05-14T09:01:09.272Z,95824.84
2018-05-14T09:03:35.200Z,95819.30
2018-05-14T09:06:01.128Z,95823.64
2018-05-14T09:08:27.067Z,95820.53
2018-05-14T09:10:52.972Z,95818.61
2018-05-14T09:13:18.850Z,95822.16
2018-05-14T09:15:44.801Z,95824.85
2018-05-14T09:18:10.765Z,95828.62
2018-05-14T09:20:36.649Z,95834.06
2018-05-14T09:23:02.597Z,95827.71
2018-05-14T09:25:28.589Z,95825.41
2018-05-14T09:27:54.451Z,95825.30
2018-05-14T09:30:20.390Z,95827.27
2018-05-14T09:32:46.811Z,95830.98
2018-05-14T09:35:12.753Z,95834.66
2018-05-14T09:37:38.656Z,95833.53
2018-05-14T09:40:04.608Z,95838.91
2018-05-14T09:42:30.545Z,95843.27
2018-05-14T09:44:56.434Z,95837.52
2018-05-14T09:47:24.744Z,95845.84
2018-05-14T09:49:50.647Z,95845.07
2018-05-14T09:52:20.371Z,95847.10
2018-05-14T09:54:46.289Z,95843.48
2018-05-14T09:57:16.235Z,95846.46
2018-05-14T09:59:42.119Z,95849.34
2018-05-14T10:02:08.876Z,95835.52
2018-05-14T10:04:34.794Z,95846.87
2018-05-14T10:07:04.716Z,95843.62
2018-05-14T10:09:30.612Z,95839.05
2018-05-14T10:11:56.506Z,95848.22
2018-05-14T10:14:22.858Z,95848.45
2018-05-14T10:16:48.863Z,95848.78
2018-05-14T10:19:15.578Z,95849.14
2018-05-14T10:21:41.478Z,95852.18
2018-05-14T10:24:10.423Z,95860.90
2018-05-14T10:26:36.355Z,95859.48
2018-05-14T10:29:05.862Z,95857.84
2018-05-14T10:31:32.183Z,95857.97
2018-05-14T10:33:59.269Z,95858.25
2018-05-14T10:36:25.177Z,95855.40
2018-05-14T10:38:54.278Z,95866.98
2018-05-14T10:52:02.273Z,95870.76
2018-05-14T10:54:28.296Z,95867.46
2018-05-14T10:56:54.227Z,95867.92
2018-05-14T10:59:20.123Z,95875.45
2018-05-14T11:01:46.026Z,95875.55
2018-05-14T11:04:11.971Z,95878.94
2018-05-14T11:06:37.891Z,95875.99
2018-05-14T11:09:03.826Z,95877.29
2018-05-14T11:17:15.608Z,95883.61
2018-05-14T11:19:41.538Z,95883.16
2018-05-14T11:22:07.410Z,95880.30
2018-05-14T11:24:33.330Z,95879.73
2018-05-14T11:26:59.270Z,95880.34
2018-05-14T11:29:25.146Z,95874.61
2018-05-14T11:31:51.142Z,95876.69
2018-05-14T11:34:17.054Z,95886.95
2018-05-14T11:36:42.945Z,95882.17
2018-05-14T11:39:08.970Z,95880.63
2018-05-14T11:41:34.855Z,95880.63
2018-05-14T11:44:00.799Z,95885.51
2018-05-14T11:46:26.722Z,95889.38
2018-05-14T11:48:52.619Z,95892.94
2018-05-14T11:51:18.510Z,95891.98
2018-05-14T11:53:44.407Z,95889.86
2018-05-14T11:56:10.275Z,95895.73
2018-05-14T11:58:36.178Z,95890.38
2018-05-14T12:01:02.719Z,95898.14
2018-05-14T12:03:28.619Z,95899.91
2018-05-14T12:05:54.513Z,95900.39
2018-05-14T12:08:20.420Z,95906.73
2018-05-14T12:10:46.323Z,95905.81
2018-05-14T12:13:15.346Z,95904.30
2018-05-14T12:15:41.251Z,95904.79
2018-05-14T12:18:10.674Z,95903.12
2018-05-14T12:20:36.559Z,95904.31
2018-05-14T12:23:02.505Z,95903.84
2018-05-14T12:25:28.360Z,95898.36
2018-05-14T12:27:54.251Z,95906.67
2018-05-14T12:30:21.158Z,95911.31
2018-05-14T12:32:47.575Z,95907.20
2018-05-14T12:35:16.336Z,95906.40
2018-05-14T12:37:42.231Z,95901.52
2018-05-14T12:48:47.813Z,95906.66
2018-05-14T12:51:13.751Z,95903.71
2018-05-14T12:53:39.721Z,95913.16
2018-05-14T12:56:07.159Z,95903.58
2018-05-14T12:58:33.155Z,95904.03
2018-05-14T13:01:00.972Z,95904.05
2018-05-14T13:03:26.888Z,95901.17
2018-05-14T13:05:56.694Z,95900.02
2018-05-14T13:08:22.590Z,95897.26
2018-05-14T13:10:50.006Z,95902.87
2018-05-14T13:13:15.924Z,95900.98
2018-05-14T13:15:42.487Z,95903.35
2018-05-14T13:18:08.446Z,95898.41
2018-05-14T13:20:34.348Z,95901.86
2018-05-14T13:23:03.366Z,95903.53
2018-05-14T13:25:29.498Z,95903.70
2018-05-14T13:27:56.585Z,95906.52
2018-05-14T13:30:22.637Z,95905.52
2018-05-14T13:32:51.691Z,95900.73
2018-05-14T13:35:17.749Z,95894.49
2018-05-14T13:37:49.581Z,95893.47
2018-05-14T13:40:17.250Z,95888.05
2018-05-14T13:42:43.339Z,95878.04
2018-05-14T13:45:09.317Z,95871.77
2018-05-14T13:47:35.445Z,95868.48
2018-05-14T13:50:01.808Z,95866.72
2018-05-14T13:52:32.841Z,95871.20
2018-05-14T13:54:59.470Z,95869.05
2018-05-14T13:57:25.469Z,95868.73
2018-05-14T13:59:51.365Z,95874.27
2018-05-14T14:02:17.286Z,95875.67
2018-05-14T14:04:43.260Z,95876.16
2018-05-14T14:07:16.197Z,95877.47
2018-05-14T14:09:45.013Z,95876.44
2018-05-14T14:12:11.094Z,95875.36
2018-05-14T14:14:36.996Z,95870.60
2018-05-14T14:17:02.903Z,95870.17
2018-05-14T14:19:28.853Z,95869.20
2018-05-14T14:21:55.249Z,95871.22
2018-05-14T14:24:21.208Z,95862.81
2018-05-14T14:26:47.038Z,95871.27
2018-05-14T14:29:12.979Z,95870.05
2018-05-14T14:31:38.880Z,95872.91
2018-05-14T14:34:12.537Z,95872.16
2018-05-14T14:36:38.683Z,95863.05
2018-05-14T14:39:11.885Z,95867.56
2018-05-14T14:41:38.691Z,95861.68
2018-05-14T14:44:04.614Z,95857.86
2018-05-14T14:46:30.591Z,95859.16
2018-05-14T14:48:56.474Z,95866.53
2018-05-14T14:51:22.382Z,95869.47
2018-05-14T14:53:48.298Z,95865.05
2018-05-14T14:56:14.174Z,95861.70
2018-05-14T14:58:40.075Z,95853.19
2018-05-14T15:01:07.190Z,95850.02
2018-05-14T15:03:33.391Z,95861.41
2018-05-14T15:05:59.312Z,95863.89
2018-05-14T15:08:25.161Z,95867.52
2018-05-14T15:10:55.247Z,95872.66
2018-05-14T15:13:21.413Z,95871.71
2018-05-14T15:15:47.336Z,95866.11
2018-05-14T15:18:13.256Z,95876.09
2018-05-14T15:20:39.159Z,95878.86
2018-05-14T15:23:07.139Z,95872.98
2018-05-14T15:25:33.051Z,95880.27
2018-05-14T15:28:02.531Z,95888.15
2018-05-14T15:30:28.392Z,95893.59
2018-05-14T15:32:56.893Z,95892.46
2018-05-14T15:35:22.802Z,95879.43
2018-05-14T15:37:52.224Z,95886.86
2018-05-14T15:40:18.127Z,95885.69
2018-05-14T15:42:44.015Z,95884.59
2018-05-14T15:45:09.985Z,95884.02
2018-05-14T15:47:35.923Z,95881.47
2018-05-14T15:50:05.588Z,95885.27
2018-05-14T15:52:31.574Z,95884.09
2018-05-14T15:54:58.291Z,95874.64
2018-05-14T15:57:24.193Z,95872.77
2018-05-14T15:59:53.842Z,95867.86
2018-05-14T16:02:19.743Z,95874.15
2018-05-14T16:04:48.868Z,95879.18
2018-05-14T16:07:14.795Z,95882.04
2018-05-14T16:09:41.743Z,95879.69
2018-05-14T16:12:07.627Z,95884.33
2018-05-14T16:14:40.493Z,95892.07
2018-05-14T16:17:10.471Z,95897.30
2018-05-14T16:19:37.024Z,95897.02
2018-05-14T16:22:02.966Z,95889.11
2018-05-14T16:24:28.880Z,95880.27
2018-05-14T16:26:54.815Z,95874.08
2018-05-14T16:29:20.737Z,95878.05
2018-05-14T16:31:46.658Z,95889.56
2018-05-14T16:34:12.604Z,95900.94
2018-05-14T16:36:38.497Z,95899.23
2018-05-14T16:39:04.451Z,95891.52
2018-05-14T16:41:33.504Z,95863.55
2018-05-14T16:43:59.397Z,95839.50
2018-05-14T16:46:28.968Z,95824.81
2018-05-14T16:48:54.883Z,95813.98
2018-05-14T16:51:22.481Z,95803.09
2018-05-14T16:53:48.432Z,95794.29
2018-05-14T16:56:19.560Z,95785.37
2018-05-14T16:58:45.529Z,95768.88
2018-05-14T17:01:18.734Z,95766.06
2018-05-14T17:03:45.386Z,95748.39
2018-05-14T17:06:18.476Z,95753.52
2018-05-14T17:08:44.829Z,95744.45
2018-05-14T17:11:18.951Z,95741.16
2018-05-14T17:13:45.600Z,95743.38
2018-05-14T17:16:11.510Z,95754.86
2018-05-14T17:18:37.425Z,95762.12
2018-05-14T17:21:03.360Z,95759.58
2018-05-14T17:23:29.299Z,95767.70
2018-05-14T17:25:55.229Z,95780.89
2018-05-14T17:28:21.138Z,95796.55
2018-05-14T17:30:47.011Z,95806.30
2018-05-14T17:33:12.983Z,95813.92
2018-05-14T17:35:39.091Z,95829.04
2018-05-14T17:38:05.007Z,95842.48
2018-05-14T17:40:38.807Z,95849.79
2018-05-14T17:43:05.316Z,95848.22
2018-05-14T17:45:31.239Z,95861.19
2018-05-14T17:47:57.128Z,95862.53
2018-05-14T17:50:32.204Z,95858.75
2018-05-14T17:52:58.985Z,95846.28
2018-05-14T17:55:24.811Z,95856.39
2018-05-14T17:57:50.780Z,95860.13
2018-05-14T18:00:16.641Z,95865.47
2018-05-14T18:02:42.567Z,95863.34
2018-05-14T18:05:08.563Z,95871.03
2018-05-14T18:07:34.414Z,95882.16
2018-05-14T18:10:00.255Z,95880.52
2018-05-14T18:12:26.147Z,95881.72
2018-05-14T18:14:52.044Z,95886.33
2018-05-14T18:17:18.011Z,95883.84
2018-05-14T18:19:50.157Z,95881.03
2018-05-14T18:22:23.452Z,95880.73
2018-05-14T18:24:50.293Z,95871.59
2018-05-14T18:27:23.954Z,95873.80
2018-05-14T18:29:53.984Z,95863.20
2018-05-14T18:32:19.905Z,95859.76
2018-05-14T18:34:45.828Z,95854.98
2018-05-14T18:37:11.744Z,95867.47
2018-05-14T18:39:37.655Z,95861.69
2018-05-14T18:42:03.566Z,95867.50
2018-05-14T18:44:33.475Z,95865.94
2018-05-14T18:46:59.399Z,95862.54
2018-05-14T18:49:25.306Z,95868.40
2018-05-14T18:51:51.284Z,95865.35
2018-05-14T18:56:48.718Z,95851.87
2018-05-14T18:59:14.857Z,95841.94
2018-05-14T19:01:41.197Z,95844.55
2018-05-14T19:04:07.090Z,95855.30
2018-05-14T19:06:33.008Z,95863.44
2018-05-14T19:08:59.195Z,95864.47
2018-05-14T19:11:31.079Z,95865.95
2018-05-14T19:13:56.981Z,95869.34
2018-05-14T19:16:29.991Z,95867.78
2018-05-14T19:18:55.920Z,95871.11
2018-05-14T19:21:21.868Z,95877.42
2018-05-14T19:23:53.200Z,95881.46
2018-05-14T19:26:19.105Z,95887.59
2018-05-14T19:28:51.450Z,95891.96
2018-05-14T19:31:17.364Z,95891.19
2018-05-14T19:33:49.338Z,95894.50
2018-05-14T19:36:15.279Z,95893.44
2018-05-14T19:38:41.210Z,95890.77
2018-05-14T19:41:07.112Z,95897.27
2018-05-14T19:43:33.037Z,95895.74
2018-05-14T19:45:58.971Z,95893.09
2018-05-14T19:48:24.865Z,95906.69
2018-05-14T19:50:50.804Z,95918.80
2018-05-14T19:53:16.682Z,95916.20
2018-05-14T19:55:42.822Z,95917.58
2018-05-14T19:58:08.966Z,95913.14
2018-05-14T20:00:34.865Z,95920.20
2018-05-14T20:03:00.815Z,95926.90
2018-05-14T20:05:26.719Z,95930.05
2018-05-14T20:07:52.610Z,95937.91
2018-05-14T20:10:18.523Z,95936.19
2018-05-14T20:12:44.452Z,95938.67
2018-05-14T20:15:10.332Z,95938.91
2018-05-14T20:17:36.263Z,95944.37
2018-05-14T20:20:02.597Z,95949.60
2018-05-14T20:22:28.463Z,95964.64
2018-05-14T20:24:54.415Z,95957.19
2018-05-14T20:27:20.322Z,95953.76
2018-05-14T20:29:46.264Z,95953.97
2018-05-14T20:32:12.165Z,95953.34
2018-05-14T20:34:38.096Z,95954.73
2018-05-14T20:37:04.103Z,95955.40
2018-05-14T20:39:29.934Z,95950.20
2018-05-14T20:41:56.178Z,95940.14
2018-05-14T20:44:22.113Z,95945.35
2018-05-14T20:46:48.320Z,95941.20
2018-05-14T20:49:14.256Z,95946.24
2018-05-14T20:51:40.213Z,95947.64
2018-05-14T20:54:06.133Z,95935.38
2018-05-14T20:56:32.317Z,95952.69
2018-05-14T20:58:58.237Z,95938.80
2018-05-14T21:01:24.140Z,95939.98
2018-05-14T21:03:50.044Z,95943.89
2018-05-14T21:06:16.343Z,95962.16
2018-05-14T21:08:42.318Z,95969.86
2018-05-14T21:11:08.287Z,95970.75
2018-05-14T21:13:34.199Z,95976.70
2018-05-14T21:16:00.085Z,95980.56
2018-05-14T21:18:26.003Z,95984.02
2018-05-14T21:20:51.915Z,95969.93
2018-05-14T21:23:17.847Z,95983.05
2018-05-14T21:25:47.416Z,95982.96
2018-05-14T21:28:13.324Z,95983.72
2018-05-14T21:30:40.800Z,95983.98
2018-05-14T21:33:06.682Z,96005.81
2018-05-14T21:35:36.101Z,95994.05
2018-05-14T21:38:02.028Z,95997.39
2018-05-14T21:40:31.512Z,96004.55
2018-05-14T21:42:57.404Z,96005.48
2018-05-14T21:45:24.371Z,96012.37
2018-05-14T21:47:50.286Z,95996.55
2018-05-14T21:50:16.226Z,96009.37
2018-05-14T21:52:42.134Z,95997.22
2018-05-14T21:55:08.049Z,95996.25
2018-05-14T21:57:37.726Z,96001.71
2018-05-14T22:00:03.869Z,96004.72
2018-05-14T22:02:31.416Z,96001.71
2018-05-14T22:04:57.308Z,96004.59
2018-05-14T22:07:26.686Z,96006.45
2018-05-14T22:09:52.590Z,96002.91
2018-05-14T22:12:22.136Z,96001.54
2018-05-14T22:14:49.334Z,95990.07
2018-05-14T22:17:15.292Z,95993.66
2018-05-14T22:19:41.190Z,95983.09
2018-05-14T22:22:10.308Z,95985.03
2018-05-14T22:24:36.212Z,95976.66
2018-05-14T22:27:02.131Z,95981.45
2018-05-14T22:29:27.999Z,95984.02
2018-05-14T22:31:53.912Z,95977.52
2018-05-14T22:34:21.337Z,95986.52
2018-05-14T22:36:47.218Z,95976.42
2018-05-14T22:39:15.895Z,95971.33
2018-05-14T22:41:41.824Z,95973.61
2018-05-14T22:44:10.560Z,95971.56
2018-05-14T22:46:36.492Z,95972.27
2018-05-14T22:49:05.589Z,95959.37
2018-05-14T22:51:31.515Z,95960.55
2018-05-14T22:54:00.319Z,95966.89
2018-05-14T22:56:26.214Z,95961.44
2018-05-14T22:58:55.171Z,95961.02
2018-05-14T23:01:21.081Z,95953.23
2018-05-14T23:03:46.989Z,95948.23
2018-05-14T23:06:12.924Z,95943.84
2018-05-14T23:08:38.828Z,95946.67
2018-05-14T23:11:07.034Z,95943.56
2018-05-14T23:13:32.963Z,95937.14
2018-05-14T23:16:02.535Z,95933.07
2018-05-14T23:18:28.447Z,95934.57
2018-05-14T23:20:57.828Z,95932.08
2018-05-14T23:23:23.723Z,95927.97
2018-05-14T23:25:50.864Z,95936.78
2018-05-14T23:28:16.743Z,95942.02
2018-05-14T23:30:46.607Z,95944.97
2018-05-14T23:33:12.527Z,95948.22
2018-05-14T23:35:41.507Z,95950.28
2018-05-14T23:38:07.389Z,95956.27
2018-05-14T23:40:33.303Z,95953.78
2018-05-14T23:42:59.215Z,95951.02
2018-05-14T23:45:25.140Z,95948.48
2018-05-14T23:47:52.631Z,95945.45
2018-05-14T23:50:18.542Z,95946.55
2018-05-14T23:52:46.983Z,95946.56
2018-05-14T23:55:12.887Z,95948.77
2018-05-14T23:57:41.475Z,95947.53
